This is the latest recevied weather packets stored in our database for station/object KI7YRV. If no packets are shown the sender has not sent any weather packets the latest 10 day(s).
| Time | Temp. | Humidity | Pressure | Rain* | Wind** | Luminosity | Snow |
|---|---|---|---|---|---|---|---|
| 1778067021 | -3.33° C | 99% | 1020.9 hPa | 0 mm | - | - | - |
| 1778066466 | -2.78° C | 99% | 1021 hPa | 0 mm | - | - | - |
| 1778061638 | -3.33° C | 99% | 1021 hPa | 0 mm | - | - | - |
| 1778057417 | -2.22° C | 99% | 1020.9 hPa | 0 mm | - | - | - |
| 1778055629 | -2.78° C | 99% | 1020.8 hPa | 0 mm | - | - | - |
| 1778051422 | -1.67° C | 99% | 1020.8 hPa | 0 mm | - | - | - |
| 1778050826 | -1.67° C | 99% | 1020.9 hPa | 0 mm | - | - | - |
| 1778040617 | -0.56° C | 99% | 1020.1 hPa | 0 mm | - | - | - |
| 1778040015 | -0.56° C | 99% | 1020.2 hPa | 0 mm | - | - | - |
| 1778038228 | -0.56° C | 99% | 1019.9 hPa | 0 mm | - | - | - |
| 1778035828 | 0° C | 99% | 1019.5 hPa | 0 mm | - | - | - |
| 1778031622 | 0° C | 97% | 1018.5 hPa | 0 mm | - | - | - |
| 1778031026 | 0.56° C | 95% | 1018.4 hPa | 0 mm | - | - | - |
| 1778028029 | 2.22° C | 77% | 1017.5 hPa | 0 mm | - | - | - |
| 1778027415 | 2.22° C | 78% | 1017.4 hPa | 0 mm | - | - | - |
| 1778022626 | 2.22° C | 85% | 1016.8 hPa | 0 mm | - | - | - |
| 1778018426 | 6.11° C | 52% | 1015.7 hPa | 0 mm | - | - | - |
| 1778017830 | 6.11° C | 51% | 1015.7 hPa | 0 mm | - | - | - |
| 1778016025 | 6.67° C | 50% | 1015.6 hPa | 0 mm | - | - | - |
| 1778014221 | 6.67° C | 51% | 1015.7 hPa | 0 mm | - | - | - |
| 1778011819 | 6.67° C | 50% | 1016.1 hPa | 0 mm | - | - | - |
| 1778008227 | 7.78° C | 48% | 1016.1 hPa | 0 mm | - | - | - |
| 1778005231 | 6.67° C | 53% | 1016.2 hPa | 0 mm | - | - | - |
| 1778004022 | 6.11° C | 53% | 1016.5 hPa | 0 mm | - | - | - |
| 1778002851 | 6.11° C | 55% | 1016.5 hPa | 0 mm | - | - | - |
* Rain latest hour (hover to see other rain measurements)
** Current wind speed in m/s (hover to see current wind gust speed)